sensor_id;sensor_type;location;lat;lon;timestamp;temperature;humidity
8114;DHT22;4099;52.684;9.918;2022-11-13T00:02:37;3.30;99.90
8114;DHT22;4099;52.684;9.918;2022-11-13T00:07:57;3.40;99.90
8114;DHT22;4099;52.684;9.918;2022-11-13T00:13:18;3.40;99.90
8114;DHT22;4099;52.684;9.918;2022-11-13T00:18:40;3.30;99.90
8114;DHT22;4099;52.684;9.918;2022-11-13T00:24:01;3.40;99.90
8114;DHT22;4099;52.684;9.918;2022-11-13T00:29:22;3.40;99.90
8114;DHT22;4099;52.684;9.918;2022-11-13T00:34:44;3.40;99.90
8114;DHT22;4099;52.684;9.918;2022-11-13T00:40:06;3.40;99.90
8114;DHT22;4099;52.684;9.918;2022-11-13T00:45:26;3.30;99.90
8114;DHT22;4099;52.684;9.918;2022-11-13T00:50:48;3.40;99.90
8114;DHT22;4099;52.684;9.918;2022-11-13T00:56:09;3.40;99.90
8114;DHT22;4099;52.684;9.918;2022-11-13T01:01:30;3.30;99.90
8114;DHT22;4099;52.684;9.918;2022-11-13T01:06:52;3.20;99.90
8114;DHT22;4099;52.684;9.918;2022-11-13T01:12:13;3.10;99.90
8114;DHT22;4099;52.684;9.918;2022-11-13T01:17:34;2.90;99.90
8114;DHT22;4099;52.684;9.918;2022-11-13T01:22:56;2.80;99.90
8114;DHT22;4099;52.684;9.918;2022-11-13T01:28:16;2.90;99.90
8114;DHT22;4099;52.684;9.918;2022-11-13T01:33:37;2.80;99.90
8114;DHT22;4099;52.684;9.918;2022-11-13T01:38:59;2.70;99.90
8114;DHT22;4099;52.684;9.918;2022-11-13T01:44:20;2.70;99.90
8114;DHT22;4099;52.684;9.918;2022-11-13T01:49:41;2.70;99.90
8114;DHT22;4099;52.684;9.918;2022-11-13T01:55:09;2.70;99.90
8114;DHT22;4099;52.684;9.918;2022-11-13T02:00:30;2.60;99.90
8114;DHT22;4099;52.684;9.918;2022-11-13T02:05:52;2.70;99.90
8114;DHT22;4099;52.684;9.918;2022-11-13T02:11:14;2.70;99.90
8114;DHT22;4099;52.684;9.918;2022-11-13T02:23:03;2.70;99.90
8114;DHT22;4099;52.684;9.918;2022-11-13T02:28:28;2.60;99.90
8114;DHT22;4099;52.684;9.918;2022-11-13T02:33:49;2.50;99.90
8114;DHT22;4099;52.684;9.918;2022-11-13T02:39:12;2.40;99.90
8114;DHT22;4099;52.684;9.918;2022-11-13T02:44:34;2.40;99.90
8114;DHT22;4099;52.684;9.918;2022-11-13T02:49:54;2.40;99.90
8114;DHT22;4099;52.684;9.918;2022-11-13T02:55:16;2.30;99.90
8114;DHT22;4099;52.684;9.918;2022-11-13T03:00:38;2.40;99.90
8114;DHT22;4099;52.684;9.918;2022-11-13T03:05:58;2.30;99.90
8114;DHT22;4099;52.684;9.918;2022-11-13T03:11:20;2.30;99.90
8114;DHT22;4099;52.684;9.918;2022-11-13T03:16:41;2.10;99.90
8114;DHT22;4099;52.684;9.918;2022-11-13T03:22:02;2.10;99.90
8114;DHT22;4099;52.684;9.918;2022-11-13T03:27:22;2.20;99.90
8114;DHT22;4099;52.684;9.918;2022-11-13T03:32:44;2.10;99.90
8114;DHT22;4099;52.684;9.918;2022-11-13T03:38:05;1.90;99.90
8114;DHT22;4099;52.684;9.918;2022-11-13T03:43:25;1.90;99.90
8114;DHT22;4099;52.684;9.918;2022-11-13T03:48:47;1.90;99.90
8114;DHT22;4099;52.684;9.918;2022-11-13T03:54:07;1.90;99.90
8114;DHT22;4099;52.684;9.918;2022-11-13T03:59:28;1.90;99.90
8114;DHT22;4099;52.684;9.918;2022-11-13T04:04:49;1.90;99.90
8114;DHT22;4099;52.684;9.918;2022-11-13T04:10:10;1.80;99.90
8114;DHT22;4099;52.684;9.918;2022-11-13T04:15:30;1.50;99.90
8114;DHT22;4099;52.684;9.918;2022-11-13T04:20:52;1.60;99.90
8114;DHT22;4099;52.684;9.918;2022-11-13T04:26:17;1.70;99.90
8114;DHT22;4099;52.684;9.918;2022-11-13T04:31:37;1.80;99.90
8114;DHT22;4099;52.684;9.918;2022-11-13T04:36:59;1.60;99.90
8114;DHT22;4099;52.684;9.918;2022-11-13T04:42:20;1.30;99.90
8114;DHT22;4099;52.684;9.918;2022-11-13T04:47:58;1.30;99.90
8114;DHT22;4099;52.684;9.918;2022-11-13T04:53:19;1.30;99.90
8114;DHT22;4099;52.684;9.918;2022-11-13T04:58:40;1.40;99.90
8114;DHT22;4099;52.684;9.918;2022-11-13T05:04:00;1.50;99.90
8114;DHT22;4099;52.684;9.918;2022-11-13T05:09:22;1.50;99.90
8114;DHT22;4099;52.684;9.918;2022-11-13T05:14:42;1.40;99.90
8114;DHT22;4099;52.684;9.918;2022-11-13T05:20:03;1.50;99.90
8114;DHT22;4099;52.684;9.918;2022-11-13T05:25:26;1.60;99.90
8114;DHT22;4099;52.684;9.918;2022-11-13T05:30:46;1.70;99.90
8114;DHT22;4099;52.684;9.918;2022-11-13T05:36:10;1.60;99.90
8114;DHT22;4099;52.684;9.918;2022-11-13T05:41:32;1.60;99.90
8114;DHT22;4099;52.684;9.918;2022-11-13T05:46:53;1.50;99.90
8114;DHT22;4099;52.684;9.918;2022-11-13T05:52:13;1.30;99.90
8114;DHT22;4099;52.684;9.918;2022-11-13T05:57:34;1.10;99.90
8114;DHT22;4099;52.684;9.918;2022-11-13T06:02:55;1.00;99.90
8114;DHT22;4099;52.684;9.918;2022-11-13T06:08:15;1.00;99.90
8114;DHT22;4099;52.684;9.918;2022-11-13T06:13:37;1.00;99.90
8114;DHT22;4099;52.684;9.918;2022-11-13T06:19:00;1.20;99.90
8114;DHT22;4099;52.684;9.918;2022-11-13T06:24:21;1.30;99.90
8114;DHT22;4099;52.684;9.918;2022-11-13T06:29:43;1.20;99.90
8114;DHT22;4099;52.684;9.918;2022-11-13T06:35:05;1.10;99.90
8114;DHT22;4099;52.684;9.918;2022-11-13T06:40:26;1.00;99.90
8114;DHT22;4099;52.684;9.918;2022-11-13T06:45:47;1.00;99.90
8114;DHT22;4099;52.684;9.918;2022-11-13T06:51:11;0.80;99.90
8114;DHT22;4099;52.684;9.918;2022-11-13T06:56:32;0.90;99.90
8114;DHT22;4099;52.684;9.918;2022-11-13T07:01:54;1.00;99.90
8114;DHT22;4099;52.684;9.918;2022-11-13T07:07:14;0.90;99.90
8114;DHT22;4099;52.684;9.918;2022-11-13T07:12:35;0.80;99.90
8114;DHT22;4099;52.684;9.918;2022-11-13T07:18:00;0.80;99.90
8114;DHT22;4099;52.684;9.918;2022-11-13T07:23:22;0.80;99.90
8114;DHT22;4099;52.684;9.918;2022-11-13T07:28:43;0.90;99.90
8114;DHT22;4099;52.684;9.918;2022-11-13T07:34:05;1.10;99.90
8114;DHT22;4099;52.684;9.918;2022-11-13T07:39:25;1.20;99.90
8114;DHT22;4099;52.684;9.918;2022-11-13T07:44:45;1.40;99.90
8114;DHT22;4099;52.684;9.918;2022-11-13T07:50:08;1.50;99.90
8114;DHT22;4099;52.684;9.918;2022-11-13T07:55:29;1.60;99.90
8114;DHT22;4099;52.684;9.918;2022-11-13T08:00:49;1.70;99.90
8114;DHT22;4099;52.684;9.918;2022-11-13T08:06:11;1.70;99.90
8114;DHT22;4099;52.684;9.918;2022-11-13T08:11:31;1.70;99.90
8114;DHT22;4099;52.684;9.918;2022-11-13T08:16:51;1.80;99.90
8114;DHT22;4099;52.684;9.918;2022-11-13T08:22:13;2.10;99.90
8114;DHT22;4099;52.684;9.918;2022-11-13T08:27:33;2.40;99.90
8114;DHT22;4099;52.684;9.918;2022-11-13T08:32:53;2.90;99.90
8114;DHT22;4099;52.684;9.918;2022-11-13T08:38:15;3.40;99.90
8114;DHT22;4099;52.684;9.918;2022-11-13T08:43:35;3.90;99.90
8114;DHT22;4099;52.684;9.918;2022-11-13T08:48:55;4.20;99.90
8114;DHT22;4099;52.684;9.918;2022-11-13T08:54:17;4.40;99.90
8114;DHT22;4099;52.684;9.918;2022-11-13T08:59:39;4.60;99.90
8114;DHT22;4099;52.684;9.918;2022-11-13T09:04:59;4.80;99.90
8114;DHT22;4099;52.684;9.918;2022-11-13T09:10:20;5.10;99.90
8114;DHT22;4099;52.684;9.918;2022-11-13T09:15:41;5.30;99.90
8114;DHT22;4099;52.684;9.918;2022-11-13T09:21:02;5.50;99.90
8114;DHT22;4099;52.684;9.918;2022-11-13T09:26:24;5.70;99.90
8114;DHT22;4099;52.684;9.918;2022-11-13T09:31:44;5.80;99.90
8114;DHT22;4099;52.684;9.918;2022-11-13T09:37:05;6.00;99.90
8114;DHT22;4099;52.684;9.918;2022-11-13T09:42:28;6.10;99.90
8114;DHT22;4099;52.684;9.918;2022-11-13T09:47:51;6.40;99.90
8114;DHT22;4099;52.684;9.918;2022-11-13T09:53:13;6.60;99.90
8114;DHT22;4099;52.684;9.918;2022-11-13T09:58:44;6.70;99.90
8114;DHT22;4099;52.684;9.918;2022-11-13T10:04:07;7.00;99.90
8114;DHT22;4099;52.684;9.918;2022-11-13T10:09:36;7.00;99.90
8114;DHT22;4099;52.684;9.918;2022-11-13T10:15:02;7.10;99.90
8114;DHT22;4099;52.684;9.918;2022-11-13T10:20:26;7.30;99.90
8114;DHT22;4099;52.684;9.918;2022-11-13T10:25:48;7.30;99.90
8114;DHT22;4099;52.684;9.918;2022-11-13T10:31:12;7.50;99.90
8114;DHT22;4099;52.684;9.918;2022-11-13T10:36:36;7.70;99.90
8114;DHT22;4099;52.684;9.918;2022-11-13T10:41:58;7.70;99.90
8114;DHT22;4099;52.684;9.918;2022-11-13T10:47:22;7.80;99.90
8114;DHT22;4099;52.684;9.918;2022-11-13T10:52:44;7.70;99.90
8114;DHT22;4099;52.684;9.918;2022-11-13T10:58:12;7.80;99.90
8114;DHT22;4099;52.684;9.918;2022-11-13T11:03:34;8.00;99.90
8114;DHT22;4099;52.684;9.918;2022-11-13T11:09:04;8.00;99.90
8114;DHT22;4099;52.684;9.918;2022-11-13T11:14:27;8.10;99.90
8114;DHT22;4099;52.684;9.918;2022-11-13T11:19:57;8.30;99.90
8114;DHT22;4099;52.684;9.918;2022-11-13T11:25:28;8.30;99.90
8114;DHT22;4099;52.684;9.918;2022-11-13T11:30:57;8.30;99.90
8114;DHT22;4099;52.684;9.918;2022-11-13T11:36:27;8.00;99.90
8114;DHT22;4099;52.684;9.918;2022-11-13T11:41:54;8.00;99.90
8114;DHT22;4099;52.684;9.918;2022-11-13T11:47:17;8.00;99.90
8114;DHT22;4099;52.684;9.918;2022-11-13T11:52:52;8.00;99.90
8114;DHT22;4099;52.684;9.918;2022-11-13T11:58:27;8.20;99.90
8114;DHT22;4099;52.684;9.918;2022-11-13T12:04:08;8.10;99.90
8114;DHT22;4099;52.684;9.918;2022-11-13T12:09:35;8.30;99.90
8114;DHT22;4099;52.684;9.918;2022-11-13T12:15:06;8.30;99.90
8114;DHT22;4099;52.684;9.918;2022-11-13T12:20:34;8.30;99.90
8114;DHT22;4099;52.684;9.918;2022-11-13T12:26:02;8.30;99.90
8114;DHT22;4099;52.684;9.918;2022-11-13T12:31:38;8.00;99.90
8114;DHT22;4099;52.684;9.918;2022-11-13T12:37:02;7.70;99.90
8114;DHT22;4099;52.684;9.918;2022-11-13T12:42:31;7.60;99.90
8114;DHT22;4099;52.684;9.918;2022-11-13T12:47:53;7.60;99.90
8114;DHT22;4099;52.684;9.918;2022-11-13T12:53:23;7.70;99.90
8114;DHT22;4099;52.684;9.918;2022-11-13T12:58:54;7.60;99.90
8114;DHT22;4099;52.684;9.918;2022-11-13T13:04:42;7.60;99.90
8114;DHT22;4099;52.684;9.918;2022-11-13T13:10:14;7.60;99.90
8114;DHT22;4099;52.684;9.918;2022-11-13T13:15:38;7.50;99.90
8114;DHT22;4099;52.684;9.918;2022-11-13T13:21:03;7.40;99.90
8114;DHT22;4099;52.684;9.918;2022-11-13T13:26:27;7.40;99.90
8114;DHT22;4099;52.684;9.918;2022-11-13T13:31:52;7.40;99.90
8114;DHT22;4099;52.684;9.918;2022-11-13T13:37:22;7.40;99.90
8114;DHT22;4099;52.684;9.918;2022-11-13T13:42:53;7.30;99.90
8114;DHT22;4099;52.684;9.918;2022-11-13T13:48:24;7.30;99.90
8114;DHT22;4099;52.684;9.918;2022-11-13T13:53:47;7.20;99.90
8114;DHT22;4099;52.684;9.918;2022-11-13T13:59:13;7.20;99.90
8114;DHT22;4099;52.684;9.918;2022-11-13T14:04:43;7.20;99.90
8114;DHT22;4099;52.684;9.918;2022-11-13T14:10:07;7.30;99.90
8114;DHT22;4099;52.684;9.918;2022-11-13T14:15:34;7.30;99.90
8114;DHT22;4099;52.684;9.918;2022-11-13T14:20:58;7.20;99.90
8114;DHT22;4099;52.684;9.918;2022-11-13T14:26:18;7.30;99.90
8114;DHT22;4099;52.684;9.918;2022-11-13T14:31:39;7.30;99.90
8114;DHT22;4099;52.684;9.918;2022-11-13T14:37:27;7.30;99.90
8114;DHT22;4099;52.684;9.918;2022-11-13T14:42:51;7.30;99.90
8114;DHT22;4099;52.684;9.918;2022-11-13T14:48:20;7.30;99.90
8114;DHT22;4099;52.684;9.918;2022-11-13T14:53:42;7.40;99.90
8114;DHT22;4099;52.684;9.918;2022-11-13T14:59:07;7.40;99.90
8114;DHT22;4099;52.684;9.918;2022-11-13T15:04:27;7.40;99.90
8114;DHT22;4099;52.684;9.918;2022-11-13T15:09:49;7.50;99.90
8114;DHT22;4099;52.684;9.918;2022-11-13T15:15:13;7.50;99.90
8114;DHT22;4099;52.684;9.918;2022-11-13T15:20:34;7.50;99.90
8114;DHT22;4099;52.684;9.918;2022-11-13T15:25:56;7.50;99.90
8114;DHT22;4099;52.684;9.918;2022-11-13T15:31:19;7.60;99.90
8114;DHT22;4099;52.684;9.918;2022-11-13T15:36:40;7.60;99.90
8114;DHT22;4099;52.684;9.918;2022-11-13T15:42:03;7.60;99.90
8114;DHT22;4099;52.684;9.918;2022-11-13T15:47:27;7.50;99.90
8114;DHT22;4099;52.684;9.918;2022-11-13T15:52:50;7.60;99.90
8114;DHT22;4099;52.684;9.918;2022-11-13T15:58:15;7.70;99.90
8114;DHT22;4099;52.684;9.918;2022-11-13T16:03:36;7.60;99.90
8114;DHT22;4099;52.684;9.918;2022-11-13T16:08:58;7.70;99.90
8114;DHT22;4099;52.684;9.918;2022-11-13T16:14:20;7.60;99.90
8114;DHT22;4099;52.684;9.918;2022-11-13T16:19:41;7.70;99.90
8114;DHT22;4099;52.684;9.918;2022-11-13T16:25:02;7.70;99.90
8114;DHT22;4099;52.684;9.918;2022-11-13T16:30:24;7.70;99.90
8114;DHT22;4099;52.684;9.918;2022-11-13T16:35:47;7.70;99.90
8114;DHT22;4099;52.684;9.918;2022-11-13T16:41:09;7.80;99.90
8114;DHT22;4099;52.684;9.918;2022-11-13T16:46:32;7.70;99.90
8114;DHT22;4099;52.684;9.918;2022-11-13T16:51:54;7.80;99.90
8114;DHT22;4099;52.684;9.918;2022-11-13T16:57:14;7.80;99.90
8114;DHT22;4099;52.684;9.918;2022-11-13T17:02:37;7.80;99.90
8114;DHT22;4099;52.684;9.918;2022-11-13T17:07:58;7.80;99.90
8114;DHT22;4099;52.684;9.918;2022-11-13T17:13:20;7.80;99.90
8114;DHT22;4099;52.684;9.918;2022-11-13T17:18:41;7.90;99.90
8114;DHT22;4099;52.684;9.918;2022-11-13T17:24:02;7.90;99.90
8114;DHT22;4099;52.684;9.918;2022-11-13T17:29:23;7.90;99.90
8114;DHT22;4099;52.684;9.918;2022-11-13T17:34:44;7.90;99.90
8114;DHT22;4099;52.684;9.918;2022-11-13T17:40:07;8.00;99.90
8114;DHT22;4099;52.684;9.918;2022-11-13T17:45:28;8.00;99.90
8114;DHT22;4099;52.684;9.918;2022-11-13T17:50:56;8.00;99.90
8114;DHT22;4099;52.684;9.918;2022-11-13T17:56:17;8.00;99.90
8114;DHT22;4099;52.684;9.918;2022-11-13T18:01:38;8.10;99.90
8114;DHT22;4099;52.684;9.918;2022-11-13T18:07:00;8.10;99.90
8114;DHT22;4099;52.684;9.918;2022-11-13T18:12:20;8.10;99.90
8114;DHT22;4099;52.684;9.918;2022-11-13T18:17:40;8.10;99.90
8114;DHT22;4099;52.684;9.918;2022-11-13T18:23:02;8.00;99.90
8114;DHT22;4099;52.684;9.918;2022-11-13T18:28:22;8.00;99.90
8114;DHT22;4099;52.684;9.918;2022-11-13T18:33:43;7.90;99.90
8114;DHT22;4099;52.684;9.918;2022-11-13T18:39:05;7.90;99.90
8114;DHT22;4099;52.684;9.918;2022-11-13T18:44:25;7.80;99.90
8114;DHT22;4099;52.684;9.918;2022-11-13T18:49:45;7.80;99.90
8114;DHT22;4099;52.684;9.918;2022-11-13T18:55:08;7.90;99.90
8114;DHT22;4099;52.684;9.918;2022-11-13T19:00:28;7.80;99.90
8114;DHT22;4099;52.684;9.918;2022-11-13T19:05:49;7.80;99.90
8114;DHT22;4099;52.684;9.918;2022-11-13T19:11:12;7.90;99.90
8114;DHT22;4099;52.684;9.918;2022-11-13T19:16:35;7.80;99.90
8114;DHT22;4099;52.684;9.918;2022-11-13T19:21:55;7.80;99.90
8114;DHT22;4099;52.684;9.918;2022-11-13T19:27:17;7.80;99.90
8114;DHT22;4099;52.684;9.918;2022-11-13T19:32:37;7.80;99.90
8114;DHT22;4099;52.684;9.918;2022-11-13T19:37:58;7.80;99.90
8114;DHT22;4099;52.684;9.918;2022-11-13T19:43:21;7.70;99.90
8114;DHT22;4099;52.684;9.918;2022-11-13T19:48:43;7.40;99.90
8114;DHT22;4099;52.684;9.918;2022-11-13T19:54:04;7.10;99.90
8114;DHT22;4099;52.684;9.918;2022-11-13T19:59:27;6.80;99.90
8114;DHT22;4099;52.684;9.918;2022-11-13T20:04:47;6.40;99.90
8114;DHT22;4099;52.684;9.918;2022-11-13T20:10:08;6.10;99.90
8114;DHT22;4099;52.684;9.918;2022-11-13T20:15:30;6.00;99.90
8114;DHT22;4099;52.684;9.918;2022-11-13T20:20:50;5.80;99.90
8114;DHT22;4099;52.684;9.918;2022-11-13T20:26:12;5.60;99.90
8114;DHT22;4099;52.684;9.918;2022-11-13T20:31:36;5.50;99.90
8114;DHT22;4099;52.684;9.918;2022-11-13T20:36:56;5.40;99.90
8114;DHT22;4099;52.684;9.918;2022-11-13T20:42:17;5.40;99.90
8114;DHT22;4099;52.684;9.918;2022-11-13T20:47:40;5.40;99.90
8114;DHT22;4099;52.684;9.918;2022-11-13T20:53:00;5.40;99.90
8114;DHT22;4099;52.684;9.918;2022-11-13T20:58:20;5.40;99.90
8114;DHT22;4099;52.684;9.918;2022-11-13T21:03:44;5.30;99.90
8114;DHT22;4099;52.684;9.918;2022-11-13T21:09:05;5.30;99.90
8114;DHT22;4099;52.684;9.918;2022-11-13T21:14:26;5.30;99.90
8114;DHT22;4099;52.684;9.918;2022-11-13T21:19:48;5.40;99.90
8114;DHT22;4099;52.684;9.918;2022-11-13T21:25:09;5.40;99.90
8114;DHT22;4099;52.684;9.918;2022-11-13T21:30:30;5.20;99.90
8114;DHT22;4099;52.684;9.918;2022-11-13T21:35:51;5.20;99.90
8114;DHT22;4099;52.684;9.918;2022-11-13T21:41:12;5.10;99.90
8114;DHT22;4099;52.684;9.918;2022-11-13T21:46:43;5.20;99.90
8114;DHT22;4099;52.684;9.918;2022-11-13T21:52:05;5.00;99.90
8114;DHT22;4099;52.684;9.918;2022-11-13T21:57:26;5.00;99.90
8114;DHT22;4099;52.684;9.918;2022-11-13T22:02:47;5.00;99.90
8114;DHT22;4099;52.684;9.918;2022-11-13T22:08:09;5.00;99.90
8114;DHT22;4099;52.684;9.918;2022-11-13T22:13:30;5.00;99.90
8114;DHT22;4099;52.684;9.918;2022-11-13T22:18:54;5.00;99.90
8114;DHT22;4099;52.684;9.918;2022-11-13T22:24:17;5.10;99.90
8114;DHT22;4099;52.684;9.918;2022-11-13T22:29:38;5.30;99.90
8114;DHT22;4099;52.684;9.918;2022-11-13T22:34:58;5.50;99.90
8114;DHT22;4099;52.684;9.918;2022-11-13T22:40:20;5.70;99.90
8114;DHT22;4099;52.684;9.918;2022-11-13T22:45:40;5.80;99.90
8114;DHT22;4099;52.684;9.918;2022-11-13T22:51:03;5.90;99.90
8114;DHT22;4099;52.684;9.918;2022-11-13T22:56:27;6.00;99.90
8114;DHT22;4099;52.684;9.918;2022-11-13T23:01:47;6.10;99.90
8114;DHT22;4099;52.684;9.918;2022-11-13T23:07:08;6.20;99.90
8114;DHT22;4099;52.684;9.918;2022-11-13T23:12:30;6.20;99.90
8114;DHT22;4099;52.684;9.918;2022-11-13T23:17:50;6.30;99.90
8114;DHT22;4099;52.684;9.918;2022-11-13T23:23:10;6.30;99.90
8114;DHT22;4099;52.684;9.918;2022-11-13T23:28:32;6.40;99.90
8114;DHT22;4099;52.684;9.918;2022-11-13T23:33:52;6.40;99.90
8114;DHT22;4099;52.684;9.918;2022-11-13T23:39:13;6.50;99.90
8114;DHT22;4099;52.684;9.918;2022-11-13T23:44:35;6.50;99.90
8114;DHT22;4099;52.684;9.918;2022-11-13T23:49:56;6.50;99.90
8114;DHT22;4099;52.684;9.918;2022-11-13T23:55:16;6.50;99.90
